createdAt,value
2019-02-17T00:02:10.561Z,32.37
2019-02-17T00:04:41.946Z,31.13
2019-02-17T00:07:11.549Z,33.57
2019-02-17T00:09:41.305Z,34.53
2019-02-17T00:12:10.613Z,35.23
2019-02-17T00:14:40.337Z,33.00
2019-02-17T00:17:10.061Z,37.40
2019-02-17T00:19:39.755Z,34.97
2019-02-17T00:22:09.444Z,35.47
2019-02-17T00:24:39.211Z,34.60
2019-02-17T00:27:08.577Z,42.47
2019-02-17T00:29:37.783Z,38.87
2019-02-17T00:32:07.381Z,37.23
2019-02-17T00:34:36.626Z,40.83
2019-02-17T00:37:06.721Z,36.83
2019-02-17T00:39:35.904Z,38.33
2019-02-17T00:42:05.080Z,37.13
2019-02-17T00:44:34.251Z,35.20
2019-02-17T00:47:03.823Z,36.87
2019-02-17T00:49:33.158Z,37.40
2019-02-17T00:52:02.553Z,35.60
2019-02-17T00:54:31.764Z,36.43
2019-02-17T00:57:01.327Z,37.20
2019-02-17T00:59:30.586Z,35.07
2019-02-17T01:01:59.823Z,37.20
2019-02-17T01:04:29.391Z,36.47
2019-02-17T01:06:58.769Z,35.80
2019-02-17T01:09:28.364Z,40.70
2019-02-17T01:11:58.112Z,38.37
2019-02-17T01:14:27.773Z,40.07
2019-02-17T01:16:57.063Z,41.23
2019-02-17T01:19:26.593Z,37.63
2019-02-17T01:21:55.801Z,40.03
2019-02-17T01:24:25.426Z,42.47
2019-02-17T01:26:54.751Z,36.73
2019-02-17T01:29:24.033Z,41.90
2019-02-17T01:31:53.620Z,43.33
2019-02-17T01:34:23.325Z,47.33
2019-02-17T01:36:52.589Z,39.47
2019-02-17T01:39:22.348Z,43.93
2019-02-17T01:41:51.595Z,46.53
2019-02-17T01:44:21.237Z,45.63
2019-02-17T01:46:50.557Z,41.27
2019-02-17T01:49:19.726Z,43.20
2019-02-17T01:51:49.300Z,38.40
2019-02-17T01:54:18.544Z,41.37
2019-02-17T01:56:47.755Z,42.00
2019-02-17T01:59:17.057Z,35.67
2019-02-17T02:01:46.503Z,38.73
2019-02-17T02:04:15.791Z,43.57
2019-02-17T02:06:45.391Z,40.30
2019-02-17T02:09:15.042Z,36.47
2019-02-17T02:11:44.770Z,38.27
2019-02-17T02:14:13.992Z,55.93
2019-02-17T02:16:43.126Z,47.40
2019-02-17T02:19:12.682Z,40.23
2019-02-17T02:21:42.347Z,38.93
2019-02-17T02:24:11.551Z,38.37
2019-02-17T02:26:41.190Z,38.93
2019-02-17T02:29:10.495Z,37.10
2019-02-17T02:31:39.688Z,41.23
2019-02-17T02:34:08.866Z,39.20
2019-02-17T02:36:38.060Z,38.70
2019-02-17T02:39:07.866Z,35.17
2019-02-17T02:41:38.080Z,35.57
2019-02-17T02:44:08.601Z,41.43
2019-02-17T02:46:38.252Z,43.07
2019-02-17T02:49:08.130Z,42.83
2019-02-17T02:51:38.862Z,34.70
2019-02-17T02:54:08.128Z,36.27
2019-02-17T02:56:37.786Z,34.80
2019-02-17T02:59:07.405Z,33.13
2019-02-17T03:01:36.670Z,36.33
2019-02-17T03:04:05.851Z,42.17
2019-02-17T03:06:41.050Z,38.57
2019-02-17T03:09:10.734Z,37.83
2019-02-17T03:11:40.377Z,39.90
2019-02-17T03:14:10.090Z,39.90
2019-02-17T03:16:39.937Z,34.00
2019-02-17T03:19:09.256Z,38.13
2019-02-17T03:21:38.414Z,45.43
2019-02-17T03:24:07.598Z,37.27
2019-02-17T03:26:37.293Z,41.93
2019-02-17T03:29:06.640Z,38.03
2019-02-17T03:31:35.807Z,39.50
2019-02-17T03:34:05.403Z,45.40
2019-02-17T03:36:35.090Z,45.83
2019-02-17T03:39:05.869Z,40.57
2019-02-17T03:41:35.319Z,40.57
2019-02-17T03:44:05.030Z,43.13
2019-02-17T03:46:34.908Z,39.63
2019-02-17T03:49:04.585Z,44.53
2019-02-17T03:51:33.944Z,49.53
2019-02-17T03:54:03.799Z,39.67
2019-02-17T03:56:33.463Z,40.57
2019-02-17T03:59:02.851Z,45.50
2019-02-17T04:01:32.209Z,44.90
2019-02-17T04:04:01.932Z,42.90
2019-02-17T04:06:31.796Z,42.37
2019-02-17T04:09:01.488Z,45.80
2019-02-17T04:11:32.541Z,43.80
2019-02-17T04:14:01.801Z,44.50
2019-02-17T04:16:31.425Z,41.67
2019-02-17T04:19:01.226Z,41.80
2019-02-17T04:21:33.400Z,41.10
2019-02-17T04:24:01.975Z,42.17
2019-02-17T04:26:31.582Z,44.50
2019-02-17T04:29:01.298Z,47.03
2019-02-17T04:31:31.059Z,45.03
2019-02-17T04:34:00.334Z,45.97
2019-02-17T04:36:29.889Z,42.27
2019-02-17T04:38:59.625Z,44.70
2019-02-17T04:41:29.194Z,46.93
2019-02-17T04:43:58.464Z,44.67
2019-02-17T04:46:28.102Z,44.37
2019-02-17T04:48:57.773Z,44.37
2019-02-17T04:51:27.467Z,45.47
2019-02-17T04:53:56.767Z,43.77
2019-02-17T04:56:25.933Z,41.60
2019-02-17T04:58:55.518Z,52.10
2019-02-17T05:01:24.787Z,42.97
2019-02-17T05:03:54.004Z,40.70
2019-02-17T05:06:23.558Z,45.37
2019-02-17T05:08:53.222Z,43.53
2019-02-17T05:11:22.938Z,46.27
2019-02-17T05:13:52.687Z,40.97
2019-02-17T05:16:22.339Z,40.47
2019-02-17T05:18:51.611Z,41.27
2019-02-17T05:21:20.793Z,43.27
2019-02-17T05:23:50.018Z,41.17
2019-02-17T05:26:19.190Z,48.00
2019-02-17T05:28:48.331Z,47.00
2019-02-17T05:31:20.765Z,49.63
2019-02-17T05:33:49.983Z,46.20
2019-02-17T05:36:19.081Z,47.13
2019-02-17T05:38:48.655Z,46.80
2019-02-17T05:41:19.597Z,50.20
2019-02-17T05:43:49.633Z,47.33
2019-02-17T05:46:19.944Z,45.80
2019-02-17T05:48:49.239Z,48.73
2019-02-17T05:51:18.862Z,49.77
2019-02-17T05:53:48.085Z,44.77
2019-02-17T05:56:17.242Z,51.27
2019-02-17T05:58:46.899Z,48.33
2019-02-17T06:01:16.148Z,45.20
2019-02-17T06:03:45.755Z,47.40
2019-02-17T06:06:15.429Z,49.17
2019-02-17T06:08:45.152Z,53.07
2019-02-17T06:11:14.855Z,50.43
2019-02-17T06:13:44.106Z,49.00
2019-02-17T06:16:13.249Z,48.70
2019-02-17T06:18:42.955Z,49.57
2019-02-17T06:21:12.739Z,49.13
2019-02-17T06:23:42.023Z,52.13
2019-02-17T06:26:11.557Z,50.17
2019-02-17T06:28:41.228Z,52.97
2019-02-17T06:31:14.528Z,51.33
2019-02-17T06:33:42.946Z,49.00
2019-02-17T06:36:17.437Z,51.77
2019-02-17T06:38:47.004Z,47.37
2019-02-17T06:41:16.238Z,51.23
2019-02-17T06:43:45.413Z,48.60
2019-02-17T06:46:19.284Z,49.27
2019-02-17T06:48:49.478Z,47.47
2019-02-17T06:51:19.393Z,50.70
2019-02-17T06:53:50.006Z,50.23
2019-02-17T06:56:25.778Z,52.10
2019-02-17T06:58:55.421Z,50.87
2019-02-17T07:01:25.153Z,48.90
2019-02-17T07:03:54.366Z,50.40
2019-02-17T07:06:27.535Z,53.20
2019-02-17T07:08:57.292Z,53.90
2019-02-17T07:11:56.879Z,53.67
2019-02-17T07:14:57.340Z,47.10
2019-02-17T07:17:27.163Z,51.57
2019-02-17T07:23:33.432Z,50.70
2019-02-17T07:26:03.325Z,46.57
2019-02-17T07:28:49.887Z,52.47
2019-02-17T07:31:19.643Z,50.87
2019-02-17T07:33:52.954Z,48.23
2019-02-17T07:36:22.292Z,52.80
2019-02-17T07:38:51.942Z,48.40
2019-02-17T07:41:21.247Z,47.30
2019-02-17T07:43:50.766Z,48.23
2019-02-17T07:46:24.045Z,48.97
2019-02-17T07:48:53.242Z,44.60
2019-02-17T07:51:22.936Z,45.93
2019-02-17T07:53:52.145Z,43.40
2019-02-17T07:56:22.273Z,48.83
2019-02-17T07:58:52.738Z,48.30
2019-02-17T08:01:22.101Z,48.40
2019-02-17T08:03:51.671Z,43.93
2019-02-17T08:06:21.362Z,47.67
2019-02-17T08:08:51.093Z,45.27
2019-02-17T08:11:20.800Z,54.67
2019-02-17T08:13:50.510Z,46.83
2019-02-17T08:16:20.472Z,45.27
2019-02-17T08:18:50.132Z,45.60
2019-02-17T08:21:19.359Z,44.70
2019-02-17T08:23:48.960Z,44.93
2019-02-17T08:26:18.380Z,45.20
2019-02-17T08:28:48.030Z,49.47
2019-02-17T08:31:17.750Z,42.57
2019-02-17T08:33:47.704Z,46.80
2019-02-17T08:36:17.492Z,43.67
2019-02-17T08:38:47.175Z,50.00
2019-02-17T08:41:16.922Z,47.00
2019-02-17T08:43:46.590Z,45.47
2019-02-17T08:46:16.332Z,46.43
2019-02-17T08:48:45.842Z,43.40
2019-02-17T08:51:15.746Z,47.73
2019-02-17T08:53:45.556Z,43.63
2019-02-17T08:56:15.282Z,48.63
2019-02-17T08:58:44.945Z,44.30
2019-02-17T09:01:14.178Z,43.73
2019-02-17T09:03:43.724Z,46.80
2019-02-17T09:06:12.945Z,42.30
2019-02-17T09:08:42.509Z,44.37
2019-02-17T09:11:12.426Z,44.00
2019-02-17T09:13:41.798Z,49.37
2019-02-17T09:16:10.962Z,43.97
2019-02-17T09:18:40.066Z,39.67
2019-02-17T09:21:09.686Z,43.83
2019-02-17T09:23:39.385Z,44.13
2019-02-17T09:26:08.670Z,45.10
2019-02-17T09:28:38.008Z,46.13
2019-02-17T09:31:07.588Z,44.60
2019-02-17T09:33:37.228Z,54.20
2019-02-17T09:36:06.775Z,48.30
2019-02-17T09:38:36.337Z,46.90
2019-02-17T09:41:06.046Z,45.30
2019-02-17T09:43:35.310Z,41.13
2019-02-17T09:46:04.446Z,47.20
2019-02-17T09:48:33.741Z,41.30
2019-02-17T09:51:03.010Z,38.30
2019-02-17T09:53:32.191Z,39.07
2019-02-17T09:56:01.899Z,47.23
2019-02-17T09:58:31.150Z,44.23
2019-02-17T10:01:04.234Z,41.17
2019-02-17T10:03:33.941Z,41.03
2019-02-17T10:06:03.788Z,40.40
2019-02-17T10:08:33.010Z,43.77
2019-02-17T10:11:02.235Z,45.30
2019-02-17T10:13:31.522Z,46.40
2019-02-17T10:16:00.747Z,38.90
2019-02-17T10:18:29.925Z,44.43
2019-02-17T10:20:59.184Z,43.47
2019-02-17T10:23:29.108Z,43.47
2019-02-17T10:25:58.405Z,42.67
2019-02-17T10:28:27.539Z,43.73
2019-02-17T10:30:56.714Z,36.17
2019-02-17T10:33:25.893Z,42.23
2019-02-17T10:35:55.429Z,60.03
2019-02-17T10:38:25.109Z,60.60
2019-02-17T10:40:58.071Z,38.93
2019-02-17T10:43:27.278Z,38.30
2019-02-17T10:45:56.427Z,36.50
2019-02-17T10:48:26.013Z,41.50
2019-02-17T10:50:56.618Z,35.53
2019-02-17T10:53:27.555Z,35.90
2019-02-17T10:55:56.828Z,36.03
2019-02-17T10:58:26.063Z,41.53
2019-02-17T11:00:55.763Z,39.43
2019-02-17T11:03:25.502Z,35.83
2019-02-17T11:05:55.537Z,34.97
2019-02-17T11:08:24.954Z,36.03
2019-02-17T11:10:54.594Z,41.10
2019-02-17T11:13:23.907Z,34.97
2019-02-17T11:15:53.543Z,33.17
2019-02-17T11:18:22.949Z,30.03
2019-02-17T11:20:52.310Z,36.30
2019-02-17T11:23:21.545Z,30.57
2019-02-17T11:26:20.527Z,33.10
2019-02-17T11:28:51.263Z,39.20
2019-02-17T11:31:25.308Z,35.23
2019-02-17T11:33:55.651Z,42.77
2019-02-17T11:36:37.409Z,37.33
2019-02-17T11:39:13.032Z,38.37
2019-02-17T11:41:42.603Z,32.53
2019-02-17T11:44:11.848Z,38.33
2019-02-17T11:46:41.140Z,54.70
2019-02-17T11:49:11.018Z,59.67
2019-02-17T11:51:40.884Z,38.80
2019-02-17T11:54:10.176Z,37.00
2019-02-17T11:56:39.937Z,36.67
2019-02-17T11:59:09.323Z,38.30
2019-02-17T12:01:38.674Z,39.93
2019-02-17T12:04:08.362Z,32.03
2019-02-17T12:06:37.695Z,38.30
2019-02-17T12:09:07.953Z,36.03
2019-02-17T12:11:38.859Z,34.40
2019-02-17T12:14:09.790Z,34.67
2019-02-17T12:16:39.661Z,34.37
2019-02-17T12:19:10.097Z,43.27
2019-02-17T12:21:56.876Z,39.50
2019-02-17T12:24:31.010Z,35.73
2019-02-17T12:27:08.130Z,27.83
2019-02-17T12:29:40.591Z,40.60
2019-02-17T12:32:10.209Z,35.70
2019-02-17T12:34:39.674Z,34.27
2019-02-17T12:37:08.964Z,35.30
2019-02-17T12:39:38.784Z,36.27
2019-02-17T12:42:08.543Z,37.10
2019-02-17T12:44:38.469Z,30.90
2019-02-17T12:47:07.862Z,39.57
2019-02-17T12:49:37.928Z,45.33
2019-02-17T12:52:07.527Z,42.20
2019-02-17T12:54:38.299Z,35.37
2019-02-17T12:57:07.666Z,33.70
2019-02-17T12:59:37.120Z,35.23
2019-02-17T13:02:08.061Z,33.47
2019-02-17T13:04:38.731Z,33.27
2019-02-17T13:07:10.232Z,29.50
2019-02-17T13:09:40.463Z,29.90
2019-02-17T13:12:11.720Z,32.77
2019-02-17T13:14:41.570Z,35.87
2019-02-17T13:17:11.801Z,35.27
2019-02-17T13:19:41.850Z,33.30
2019-02-17T13:22:11.773Z,33.27
2019-02-17T13:24:41.198Z,34.63
2019-02-17T13:27:11.102Z,33.63
2019-02-17T13:29:42.830Z,31.00
2019-02-17T13:32:12.366Z,32.37
2019-02-17T13:34:42.867Z,31.70
2019-02-17T13:37:13.857Z,33.43
2019-02-17T13:39:43.277Z,33.93
2019-02-17T13:42:12.786Z,32.77
2019-02-17T13:44:42.861Z,30.83
2019-02-17T13:47:19.331Z,32.90
2019-02-17T13:49:49.929Z,36.60
2019-02-17T13:52:20.637Z,56.33
2019-02-17T13:54:50.375Z,44.90
2019-02-17T13:57:25.647Z,34.50
2019-02-17T14:00:03.491Z,28.57
2019-02-17T14:02:34.701Z,31.47
2019-02-17T14:05:07.805Z,32.37
2019-02-17T14:07:39.533Z,34.53
2019-02-17T14:10:10.325Z,31.83
2019-02-17T14:12:40.386Z,31.17
2019-02-17T14:15:12.944Z,30.07
2019-02-17T14:17:45.336Z,29.63
2019-02-17T14:20:14.843Z,28.93
2019-02-17T14:22:45.836Z,31.67
2019-02-17T14:25:16.307Z,25.87
2019-02-17T14:27:45.734Z,29.50
2019-02-17T14:30:15.536Z,24.80
2019-02-17T14:32:48.261Z,25.90
2019-02-17T14:35:18.221Z,27.53
2019-02-17T14:37:48.242Z,26.20
2019-02-17T14:40:18.311Z,30.80
2019-02-17T14:42:47.970Z,24.53
2019-02-17T14:45:21.668Z,27.10
2019-02-17T14:47:52.156Z,25.10
2019-02-17T14:50:22.230Z,31.57
2019-02-17T14:52:52.074Z,28.50
2019-02-17T14:55:22.152Z,28.80
2019-02-17T14:57:52.018Z,29.77
2019-02-17T15:00:22.238Z,26.83
2019-02-17T15:02:52.478Z,29.03
2019-02-17T15:05:23.499Z,24.03
2019-02-17T15:07:53.608Z,22.27
2019-02-17T15:10:24.103Z,20.60
2019-02-17T15:12:54.692Z,26.07
2019-02-17T15:15:24.108Z,24.17
2019-02-17T15:17:53.828Z,23.13
2019-02-17T15:20:23.342Z,30.63
2019-02-17T15:22:53.666Z,27.63
2019-02-17T15:25:25.078Z,31.27
2019-02-17T15:27:54.522Z,29.73
2019-02-17T15:30:25.170Z,35.77
2019-02-17T15:33:03.291Z,28.97
2019-02-17T15:35:26.354Z,30.60
2019-02-17T15:37:56.641Z,39.47
2019-02-17T15:40:25.972Z,32.83
2019-02-17T15:42:55.171Z,35.80
2019-02-17T15:45:24.934Z,33.37
2019-02-17T15:47:55.108Z,35.97
2019-02-17T15:50:24.616Z,38.73
2019-02-17T15:52:54.276Z,27.87
2019-02-17T15:55:24.058Z,39.20
2019-02-17T15:57:53.455Z,31.73
2019-02-17T16:00:22.994Z,36.10
2019-02-17T16:02:52.308Z,29.67
2019-02-17T16:05:21.491Z,35.87
2019-02-17T16:07:50.738Z,31.03
2019-02-17T16:10:20.385Z,30.33
2019-02-17T16:12:50.326Z,31.53
2019-02-17T16:15:20.140Z,35.93
2019-02-17T16:17:50.428Z,31.23
2019-02-17T16:20:25.011Z,36.00
2019-02-17T16:22:54.892Z,32.83
2019-02-17T16:25:24.162Z,30.43
2019-02-17T16:27:53.929Z,29.97
2019-02-17T16:30:23.793Z,40.03
2019-02-17T16:32:53.684Z,38.37
2019-02-17T16:35:23.607Z,37.37
2019-02-17T16:37:53.364Z,38.93
2019-02-17T16:40:23.178Z,34.93
2019-02-17T16:42:53.262Z,33.20
2019-02-17T16:45:22.632Z,34.47
2019-02-17T16:47:52.248Z,31.50
2019-02-17T16:53:51.741Z,33.43
2019-02-17T16:56:21.808Z,45.20
2019-02-17T16:58:51.729Z,35.03
2019-02-17T17:01:21.625Z,31.87
2019-02-17T17:03:51.417Z,32.53
2019-02-17T17:06:20.742Z,30.60
2019-02-17T17:08:50.518Z,34.23
2019-02-17T17:11:20.431Z,31.53
2019-02-17T17:13:50.188Z,34.03
2019-02-17T17:16:19.512Z,42.17
2019-02-17T17:18:49.247Z,30.60
2019-02-17T17:21:19.182Z,32.97
2019-02-17T17:23:49.157Z,26.77
2019-02-17T17:26:19.506Z,34.40
2019-02-17T17:28:48.715Z,34.33
2019-02-17T17:31:17.984Z,38.57
2019-02-17T17:33:47.464Z,34.33
2019-02-17T17:36:18.099Z,30.17
2019-02-17T17:38:48.994Z,34.47
2019-02-17T17:41:18.817Z,31.67
2019-02-17T17:44:07.291Z,35.43
2019-02-17T17:47:06.340Z,29.37
2019-02-17T17:53:45.373Z,28.50
2019-02-17T17:57:13.351Z,35.63
2019-02-17T18:03:10.112Z,32.57
2019-02-17T18:09:27.518Z,29.57
2019-02-17T18:12:02.923Z,31.17
2019-02-17T18:14:33.879Z,29.40
2019-02-17T18:17:03.766Z,37.60
2019-02-17T18:20:09.360Z,32.57
2019-02-17T18:22:39.174Z,34.00
2019-02-17T18:25:12.949Z,29.77
2019-02-17T18:27:43.149Z,32.53
2019-02-17T18:30:17.908Z,31.23
2019-02-17T18:32:47.460Z,35.07
2019-02-17T18:35:20.261Z,37.13
2019-02-17T18:37:54.258Z,31.63
2019-02-17T18:40:31.902Z,31.93
2019-02-17T18:43:03.421Z,41.73
2019-02-17T18:45:33.740Z,38.53
2019-02-17T18:48:05.153Z,31.57
2019-02-17T18:50:34.643Z,35.80
2019-02-17T18:53:04.923Z,36.17
2019-02-17T18:55:35.052Z,33.60
2019-02-17T18:58:05.283Z,36.13
2019-02-17T19:00:35.382Z,31.90
2019-02-17T19:03:06.074Z,32.63
2019-02-17T19:05:35.788Z,30.10
2019-02-17T19:08:05.647Z,32.70
2019-02-17T19:10:35.225Z,33.97
2019-02-17T19:13:04.996Z,33.77
2019-02-17T19:15:35.100Z,34.47
2019-02-17T19:18:05.203Z,38.23
2019-02-17T19:20:34.597Z,33.37
2019-02-17T19:23:04.679Z,38.80
2019-02-17T19:25:34.413Z,36.20
2019-02-17T19:28:04.461Z,34.37
2019-02-17T19:30:33.853Z,32.80
2019-02-17T19:33:03.665Z,29.93
2019-02-17T19:35:41.578Z,32.23
2019-02-17T19:38:04.784Z,34.27
2019-02-17T19:40:36.134Z,36.57
2019-02-17T19:43:05.540Z,29.37
2019-02-17T19:45:35.844Z,35.03
2019-02-17T19:48:06.352Z,31.73
2019-02-17T19:50:36.486Z,33.13
2019-02-17T19:53:06.036Z,39.33
2019-02-17T19:55:35.987Z,33.97
2019-02-17T19:58:07.485Z,36.03
2019-02-17T20:00:37.316Z,27.73
2019-02-17T20:03:15.157Z,31.67
2019-02-17T20:05:52.270Z,29.60
2019-02-17T20:08:21.691Z,32.73
2019-02-17T20:10:55.662Z,34.73
2019-02-17T20:13:25.464Z,29.80
2019-02-17T20:15:55.019Z,32.47
2019-02-17T20:18:24.564Z,35.60
2019-02-17T20:21:00.580Z,34.57
2019-02-17T20:23:30.278Z,38.47
2019-02-17T20:26:00.815Z,36.67
2019-02-17T20:28:42.544Z,37.50
2019-02-17T20:31:02.625Z,34.33
2019-02-17T20:33:32.126Z,37.83
2019-02-17T20:36:03.134Z,41.13
2019-02-17T20:38:36.038Z,41.47
2019-02-17T20:41:05.397Z,40.43
2019-02-17T20:43:34.996Z,37.40
2019-02-17T20:46:28.202Z,41.63
2019-02-17T20:48:57.794Z,36.20
2019-02-17T20:51:27.559Z,42.23
2019-02-17T20:53:57.911Z,39.97
2019-02-17T20:56:27.218Z,42.47
2019-02-17T20:58:56.594Z,37.10
2019-02-17T21:01:25.821Z,36.23
2019-02-17T21:03:55.595Z,46.57
2019-02-17T21:06:24.975Z,36.07
2019-02-17T21:08:54.757Z,38.43
2019-02-17T21:11:24.060Z,35.17
2019-02-17T21:13:53.884Z,35.70
2019-02-17T21:16:23.165Z,34.40
2019-02-17T21:18:53.731Z,37.13
2019-02-17T21:21:25.414Z,36.80
2019-02-17T21:23:59.672Z,35.80
2019-02-17T21:26:36.486Z,42.77
2019-02-17T21:29:07.966Z,37.67
2019-02-17T21:31:40.038Z,43.33
2019-02-17T21:34:10.330Z,38.37
2019-02-17T21:36:39.998Z,45.47
2019-02-17T21:39:10.311Z,40.60
2019-02-17T21:41:42.469Z,38.77
2019-02-17T21:44:17.089Z,45.07
2019-02-17T21:46:57.902Z,45.47
2019-02-17T21:49:28.446Z,51.27
2019-02-17T21:51:57.990Z,44.23
2019-02-17T21:54:27.735Z,51.13
2019-02-17T21:56:57.785Z,52.17
2019-02-17T21:59:27.634Z,48.47
2019-02-17T22:01:57.581Z,56.50
2019-02-17T22:04:27.377Z,65.80
2019-02-17T22:06:56.987Z,57.40
2019-02-17T22:09:26.861Z,61.97
2019-02-17T22:12:21.967Z,62.77
2019-02-17T22:14:51.516Z,72.20
2019-02-17T22:17:21.832Z,62.03
2019-02-17T22:19:51.728Z,63.37
2019-02-17T22:22:21.169Z,59.37
2019-02-17T22:24:50.459Z,62.23
2019-02-17T22:27:19.956Z,53.50
2019-02-17T22:29:49.805Z,64.67
2019-02-17T22:32:19.780Z,55.73
2019-02-17T22:34:55.337Z,57.53
2019-02-17T22:37:24.870Z,57.53
2019-02-17T22:39:54.595Z,63.57
2019-02-17T22:42:24.169Z,52.60
2019-02-17T22:44:54.084Z,59.87
2019-02-17T22:47:24.032Z,59.80
2019-02-17T22:49:53.472Z,60.87
2019-02-17T22:52:23.369Z,61.73
2019-02-17T22:54:52.971Z,52.67
2019-02-17T22:57:22.228Z,63.07
2019-02-17T22:59:51.651Z,65.37
2019-02-17T23:02:21.969Z,62.73
2019-02-17T23:04:51.389Z,56.43
2019-02-17T23:07:20.724Z,61.97
2019-02-17T23:09:50.700Z,63.67
2019-02-17T23:12:20.621Z,59.73
2019-02-17T23:14:50.439Z,65.90
2019-02-17T23:17:20.456Z,59.03
2019-02-17T23:19:50.247Z,63.17
2019-02-17T23:22:19.737Z,57.63
2019-02-17T23:24:49.674Z,63.03
2019-02-17T23:27:19.748Z,63.47
2019-02-17T23:29:49.881Z,66.90
2019-02-17T23:32:19.282Z,67.03
2019-02-17T23:34:48.592Z,61.63
2019-02-17T23:37:17.932Z,69.63
2019-02-17T23:39:47.252Z,61.53
2019-02-17T23:42:16.529Z,60.00
2019-02-17T23:44:46.028Z,66.23
2019-02-17T23:47:15.300Z,65.60
2019-02-17T23:49:44.658Z,59.40
2019-02-17T23:52:14.484Z,63.77
2019-02-17T23:54:43.895Z,54.87
2019-02-17T23:57:13.096Z,61.47
2019-02-17T23:59:42.313Z,62.10
